createdAt,value
2018-11-26T00:00:15.855Z,6.60
2018-11-26T00:02:44.453Z,6.60
2018-11-26T00:05:13.047Z,6.60
2018-11-26T00:07:41.615Z,6.60
2018-11-26T00:10:21.461Z,6.60
2018-11-26T00:12:50.025Z,6.60
2018-11-26T00:15:24.103Z,6.60
2018-11-26T00:17:52.672Z,6.70
2018-11-26T00:20:21.220Z,6.90
2018-11-26T00:22:49.811Z,6.90
2018-11-26T00:25:18.347Z,6.70
2018-11-26T00:27:46.923Z,6.80
2018-11-26T00:30:15.484Z,6.90
2018-11-26T00:32:44.042Z,7.00
2018-11-26T00:35:12.571Z,7.00
2018-11-26T00:37:41.147Z,7.00
2018-11-26T00:40:11.061Z,7.00
2018-11-26T00:42:39.639Z,6.90
2018-11-26T00:45:10.490Z,6.70
2018-11-26T00:47:39.073Z,6.60
2018-11-26T00:50:09.096Z,6.70
2018-11-26T00:52:37.886Z,6.70
2018-11-26T00:55:08.427Z,6.70
2018-11-26T00:57:37.320Z,6.60
2018-11-26T01:00:09.442Z,6.50
2018-11-26T01:02:38.037Z,6.50
2018-11-26T01:05:07.285Z,6.60
2018-11-26T01:07:35.886Z,6.60
2018-11-26T01:10:04.495Z,6.70
2018-11-26T01:12:33.071Z,6.70
2018-11-26T01:15:01.603Z,6.80
2018-11-26T01:17:30.179Z,6.70
2018-11-26T01:19:58.714Z,6.80
2018-11-26T01:22:27.307Z,6.60
2018-11-26T01:24:55.850Z,6.60
2018-11-26T01:27:24.418Z,6.80
2018-11-26T01:29:52.946Z,6.80
2018-11-26T01:32:21.509Z,6.60
2018-11-26T01:34:50.051Z,6.60
2018-11-26T01:37:18.610Z,6.70
2018-11-26T01:39:47.142Z,6.80
2018-11-26T01:42:15.726Z,6.70
2018-11-26T01:44:44.274Z,6.70
2018-11-26T01:47:12.870Z,6.70
2018-11-26T01:49:41.432Z,6.70
2018-11-26T01:52:10.009Z,6.80
2018-11-26T01:54:38.550Z,6.80
2018-11-26T01:57:07.083Z,6.80
2018-11-26T01:59:35.651Z,6.70
2018-11-26T02:02:04.236Z,6.80
2018-11-26T02:04:32.834Z,6.70
2018-11-26T02:07:01.366Z,6.70
2018-11-26T02:09:29.918Z,6.70
2018-11-26T02:11:58.446Z,6.60
2018-11-26T02:14:27.003Z,6.80
2018-11-26T02:16:55.561Z,6.70
2018-11-26T02:19:24.126Z,6.60
2018-11-26T02:21:52.718Z,6.70
2018-11-26T02:24:21.285Z,6.70
2018-11-26T02:26:49.829Z,6.60
2018-11-26T02:29:18.395Z,6.60
2018-11-26T02:31:46.930Z,6.60
2018-11-26T02:34:15.475Z,6.50
2018-11-26T02:36:44.011Z,6.50
2018-11-26T02:39:12.559Z,6.60
2018-11-26T02:41:41.155Z,6.50
2018-11-26T02:44:09.705Z,6.40
2018-11-26T02:46:38.226Z,6.50
2018-11-26T02:49:06.779Z,6.60
2018-11-26T02:51:35.299Z,6.50
2018-11-26T02:54:03.903Z,6.60
2018-11-26T02:56:32.434Z,6.60
2018-11-26T02:59:00.991Z,6.70
2018-11-26T03:01:29.505Z,6.60
2018-11-26T03:03:58.054Z,6.60
2018-11-26T03:06:26.593Z,6.50
2018-11-26T03:08:55.266Z,6.40
2018-11-26T03:11:23.793Z,6.40
2018-11-26T03:13:52.362Z,6.50
2018-11-26T03:16:21.000Z,6.50
2018-11-26T03:18:49.549Z,6.50
2018-11-26T03:21:18.094Z,6.40
2018-11-26T03:23:46.637Z,6.40
2018-11-26T03:26:15.144Z,6.30
2018-11-26T03:28:44.283Z,6.40
2018-11-26T03:31:12.832Z,6.30
2018-11-26T03:33:41.366Z,6.40
2018-11-26T03:36:09.892Z,6.30
2018-11-26T03:38:55.286Z,6.20
2018-11-26T03:41:24.372Z,6.40
2018-11-26T03:43:53.003Z,6.40
2018-11-26T03:46:21.522Z,6.50
2018-11-26T03:48:50.066Z,6.50
2018-11-26T03:51:18.590Z,6.50
2018-11-26T03:53:47.121Z,6.50
2018-11-26T03:56:15.676Z,6.50
2018-11-26T03:58:44.215Z,6.60
2018-11-26T04:01:12.741Z,6.60
2018-11-26T04:03:41.278Z,6.60
2018-11-26T04:06:09.804Z,6.50
2018-11-26T04:08:38.465Z,6.60
2018-11-26T04:11:07.018Z,6.40
2018-11-26T04:13:35.559Z,6.40
2018-11-26T04:16:04.125Z,6.40
2018-11-26T04:18:32.683Z,6.50
2018-11-26T04:21:01.236Z,6.50
2018-11-26T04:23:29.774Z,6.50
2018-11-26T04:25:58.282Z,6.40
2018-11-26T04:28:26.829Z,6.50
2018-11-26T04:30:55.342Z,6.50
2018-11-26T04:33:23.881Z,6.50
2018-11-26T04:35:52.406Z,6.50
2018-11-26T04:38:20.916Z,6.40
2018-11-26T04:40:49.469Z,6.50
2018-11-26T04:43:20.187Z,6.50
2018-11-26T04:45:48.747Z,6.50
2018-11-26T04:48:17.330Z,6.40
2018-11-26T04:50:45.959Z,6.50
2018-11-26T04:53:14.517Z,6.50
2018-11-26T04:55:43.069Z,6.50
2018-11-26T04:58:11.587Z,6.60
2018-11-26T05:00:40.151Z,6.60
2018-11-26T05:03:08.688Z,6.50
2018-11-26T05:05:37.243Z,6.50
2018-11-26T05:08:05.816Z,6.50
2018-11-26T05:10:34.359Z,6.50
2018-11-26T05:13:03.010Z,6.40
2018-11-26T05:15:31.566Z,6.30
2018-11-26T05:18:00.098Z,6.30
2018-11-26T05:20:28.641Z,6.30
2018-11-26T05:22:57.202Z,6.20
2018-11-26T05:25:26.230Z,6.30
2018-11-26T05:27:54.758Z,6.30
2018-11-26T05:30:23.333Z,6.40
2018-11-26T05:32:51.866Z,6.40
2018-11-26T05:35:20.428Z,6.40
2018-11-26T05:37:48.949Z,6.30
2018-11-26T05:40:17.555Z,6.30
2018-11-26T05:42:46.167Z,6.40
2018-11-26T05:45:16.165Z,6.40
2018-11-26T05:47:44.696Z,6.40
2018-11-26T05:50:14.481Z,6.30
2018-11-26T05:52:43.010Z,6.30
2018-11-26T05:55:15.601Z,6.10
2018-11-26T05:57:44.997Z,6.20
2018-11-26T06:00:26.063Z,6.20
2018-11-26T06:02:54.610Z,6.20
2018-11-26T06:05:23.168Z,6.10
2018-11-26T06:07:51.702Z,6.10
2018-11-26T06:10:20.402Z,6.10
2018-11-26T06:12:48.924Z,6.20
2018-11-26T06:15:17.525Z,6.10
2018-11-26T06:17:46.063Z,6.20
2018-11-26T06:20:14.658Z,6.20
2018-11-26T06:22:45.175Z,6.20
2018-11-26T06:25:16.247Z,6.30
2018-11-26T06:27:45.502Z,6.30
2018-11-26T06:30:15.301Z,6.30
2018-11-26T06:32:44.225Z,6.30
2018-11-26T06:35:18.083Z,6.30
2018-11-26T06:37:47.442Z,6.30
2018-11-26T06:40:16.008Z,6.30
2018-11-26T06:42:44.879Z,6.10
2018-11-26T06:45:23.390Z,6.00
2018-11-26T06:47:52.474Z,6.00
2018-11-26T06:50:23.400Z,6.00
2018-11-26T06:52:51.990Z,6.10
2018-11-26T06:55:24.114Z,6.00
2018-11-26T06:57:52.810Z,6.00
2018-11-26T07:00:21.698Z,6.00
2018-11-26T07:02:54.810Z,6.00
2018-11-26T07:05:25.187Z,6.00
2018-11-26T07:07:55.174Z,6.10
2018-11-26T07:10:25.234Z,6.10
2018-11-26T07:12:55.471Z,6.10
2018-11-26T07:15:25.315Z,6.00
2018-11-26T07:17:54.724Z,6.10
2018-11-26T07:20:23.290Z,6.10
2018-11-26T07:22:56.047Z,6.10
2018-11-26T07:25:25.773Z,6.10
2018-11-26T07:27:55.224Z,6.00
2018-11-26T07:30:27.014Z,5.80
2018-11-26T07:32:55.555Z,5.90
2018-11-26T07:35:24.325Z,5.90
2018-11-26T07:37:52.899Z,5.80
2018-11-26T07:40:23.270Z,5.80
2018-11-26T07:43:01.738Z,5.80
2018-11-26T07:45:30.361Z,5.80
2018-11-26T07:47:58.894Z,5.80
2018-11-26T07:50:27.451Z,5.70
2018-11-26T07:52:56.134Z,5.80
2018-11-26T07:55:24.695Z,5.80
2018-11-26T07:57:53.354Z,5.90
2018-11-26T08:00:23.187Z,5.90
2018-11-26T08:02:52.467Z,5.90
2018-11-26T08:05:23.893Z,6.10
2018-11-26T08:07:52.701Z,6.00
2018-11-26T08:10:24.012Z,6.20
2018-11-26T08:12:53.926Z,6.20
2018-11-26T08:15:23.646Z,6.20
2018-11-26T08:17:52.374Z,6.40
2018-11-26T08:20:21.004Z,6.50
2018-11-26T08:22:49.633Z,6.60
2018-11-26T08:25:20.004Z,6.60
2018-11-26T08:27:49.476Z,6.60
2018-11-26T08:30:21.362Z,6.60
2018-11-26T08:32:54.070Z,6.50
2018-11-26T08:35:22.671Z,6.50
2018-11-26T08:37:57.540Z,6.40
2018-11-26T08:40:27.496Z,6.50
2018-11-26T08:42:58.549Z,6.50
2018-11-26T08:45:29.926Z,6.50
2018-11-26T08:48:00.727Z,6.50
2018-11-26T08:50:29.307Z,6.50
2018-11-26T08:52:57.823Z,6.50
2018-11-26T08:55:26.390Z,6.50
2018-11-26T08:57:55.104Z,6.60
2018-11-26T09:00:23.708Z,6.70
2018-11-26T09:03:00.687Z,6.80
2018-11-26T09:05:34.691Z,6.90
2018-11-26T09:08:03.724Z,6.90
2018-11-26T09:10:32.375Z,6.80
2018-11-26T09:13:00.920Z,6.90
2018-11-26T09:15:29.481Z,6.90
2018-11-26T09:17:59.819Z,7.00
2018-11-26T09:20:29.098Z,7.00
2018-11-26T09:22:58.914Z,7.10
2018-11-26T09:25:27.574Z,7.00
2018-11-26T09:27:56.182Z,7.00
2018-11-26T09:30:25.358Z,7.00
2018-11-26T09:32:53.994Z,7.00
2018-11-26T09:35:22.675Z,7.10
2018-11-26T09:37:51.266Z,7.30
2018-11-26T09:40:19.818Z,7.50
2018-11-26T09:42:48.469Z,7.40
2018-11-26T09:45:18.142Z,7.20
2018-11-26T09:47:46.842Z,7.20
2018-11-26T09:50:17.833Z,7.20
2018-11-26T09:52:46.457Z,7.30
2018-11-26T09:55:16.058Z,7.50
2018-11-26T09:57:45.950Z,7.50
2018-11-26T10:00:23.519Z,7.50
2018-11-26T10:02:52.742Z,7.60
2018-11-26T10:05:23.655Z,7.70
2018-11-26T10:07:52.281Z,7.50
2018-11-26T10:10:20.863Z,7.50
2018-11-26T10:12:49.470Z,7.60
2018-11-26T10:15:20.251Z,7.50
2018-11-26T10:17:48.951Z,7.40
2018-11-26T10:20:17.548Z,7.40
2018-11-26T10:22:46.980Z,7.30
2018-11-26T10:25:16.532Z,7.20
2018-11-26T10:27:45.094Z,7.30
2018-11-26T10:30:14.786Z,7.40
2018-11-26T10:32:45.367Z,7.40
2018-11-26T10:35:14.991Z,7.40
2018-11-26T10:37:45.195Z,7.50
2018-11-26T10:40:15.931Z,7.30
2018-11-26T10:42:44.846Z,7.40
2018-11-26T10:45:15.497Z,7.50
2018-11-26T10:47:44.087Z,7.40
2018-11-26T10:50:15.109Z,7.50
2018-11-26T10:52:46.011Z,7.50
2018-11-26T10:55:16.078Z,7.70
2018-11-26T10:57:44.666Z,7.70
2018-11-26T11:00:20.070Z,7.70
2018-11-26T11:02:48.979Z,7.80
2018-11-26T11:05:17.546Z,7.70
2018-11-26T11:07:46.212Z,7.50
2018-11-26T11:10:19.943Z,7.50
2018-11-26T11:12:48.629Z,7.40
2018-11-26T11:15:17.299Z,7.50
2018-11-26T11:17:45.897Z,7.50
2018-11-26T11:20:17.622Z,7.60
2018-11-26T11:22:46.297Z,7.60
2018-11-26T11:25:15.903Z,7.60
2018-11-26T11:27:44.564Z,7.50
2018-11-26T11:30:17.355Z,7.60
2018-11-26T11:32:46.226Z,7.60
2018-11-26T11:35:18.456Z,7.50
2018-11-26T11:37:48.170Z,7.40
2018-11-26T11:40:19.850Z,7.40
2018-11-26T11:42:48.995Z,7.40
2018-11-26T11:45:17.773Z,7.40
2018-11-26T11:47:46.451Z,7.60
2018-11-26T11:50:16.556Z,7.60
2018-11-26T11:52:46.559Z,7.60
2018-11-26T11:55:17.007Z,7.60
2018-11-26T11:57:45.900Z,7.50
2018-11-26T12:00:25.975Z,7.40
2018-11-26T12:02:59.510Z,7.20
2018-11-26T12:05:28.375Z,7.20
2018-11-26T12:07:57.095Z,7.30
2018-11-26T12:10:25.714Z,7.20
2018-11-26T12:12:54.351Z,7.30
2018-11-26T12:15:23.059Z,7.40
2018-11-26T12:17:51.692Z,7.40
2018-11-26T12:20:20.327Z,7.40
2018-11-26T12:22:49.151Z,7.30
2018-11-26T12:25:19.215Z,7.40
2018-11-26T12:27:47.799Z,7.40
2018-11-26T12:30:21.643Z,7.40
2018-11-26T12:32:50.288Z,7.60
2018-11-26T12:35:18.900Z,7.60
2018-11-26T12:37:47.558Z,7.60
2018-11-26T12:40:17.622Z,7.40
2018-11-26T12:42:46.707Z,7.50
2018-11-26T12:45:31.919Z,7.60
2018-11-26T12:48:01.011Z,7.60
2018-11-26T12:50:29.668Z,7.60
2018-11-26T12:52:58.470Z,7.60
2018-11-26T12:55:27.138Z,7.50
2018-11-26T12:57:56.711Z,7.60
2018-11-26T13:00:26.581Z,7.60
2018-11-26T13:02:56.675Z,7.70
2018-11-26T13:05:25.508Z,7.80
2018-11-26T13:07:55.813Z,7.80
2018-11-26T13:10:24.520Z,7.80
2018-11-26T13:12:53.529Z,7.70
2018-11-26T13:15:25.642Z,7.70
2018-11-26T13:17:54.346Z,7.70
2018-11-26T13:20:25.679Z,7.60
2018-11-26T13:22:54.837Z,7.50
2018-11-26T13:25:27.892Z,7.50
2018-11-26T13:27:57.692Z,7.50
2018-11-26T13:30:28.361Z,7.60
2018-11-26T13:33:02.667Z,7.50
2018-11-26T13:35:32.091Z,7.50
2018-11-26T13:38:00.789Z,7.50
2018-11-26T13:40:29.395Z,7.60
2018-11-26T13:42:57.920Z,7.70
2018-11-26T13:45:28.171Z,7.70
2018-11-26T13:47:56.802Z,7.70
2018-11-26T13:50:29.858Z,7.60
2018-11-26T13:52:59.110Z,7.60
2018-11-26T13:55:27.934Z,7.50
2018-11-26T13:57:57.318Z,7.40
2018-11-26T14:00:25.969Z,7.40
2018-11-26T14:02:54.565Z,7.30
2018-11-26T14:05:23.154Z,7.20
2018-11-26T14:07:51.764Z,7.10
2018-11-26T14:10:26.463Z,7.10
2018-11-26T14:12:58.316Z,7.10
2018-11-26T14:15:27.031Z,7.30
2018-11-26T14:17:55.628Z,7.30
2018-11-26T14:20:24.312Z,7.40
2018-11-26T14:22:52.916Z,7.30
2018-11-26T14:25:21.567Z,7.40
2018-11-26T14:27:50.559Z,7.50
2018-11-26T14:30:21.540Z,7.50
2018-11-26T14:32:50.311Z,7.50
2018-11-26T14:35:18.931Z,7.50
2018-11-26T14:37:49.020Z,7.50
2018-11-26T14:40:31.710Z,7.60
2018-11-26T14:43:00.339Z,7.40
2018-11-26T14:45:29.051Z,7.50
2018-11-26T14:47:57.628Z,7.50
2018-11-26T14:50:26.304Z,7.50
2018-11-26T14:52:54.908Z,7.50
2018-11-26T14:55:27.440Z,7.50
2018-11-26T14:57:56.100Z,7.50
2018-11-26T15:00:24.735Z,7.50
2018-11-26T15:02:53.331Z,7.60
2018-11-26T15:05:21.946Z,7.60
2018-11-26T15:07:50.497Z,7.50
2018-11-26T15:10:20.380Z,7.60
2018-11-26T15:12:48.967Z,7.40
2018-11-26T15:15:18.808Z,7.50
2018-11-26T15:17:47.556Z,7.50
2018-11-26T15:20:20.286Z,7.40
2018-11-26T15:22:49.535Z,7.50
2018-11-26T15:25:22.248Z,7.60
2018-11-26T15:27:51.809Z,7.50
2018-11-26T15:30:22.163Z,7.40
2018-11-26T15:32:50.699Z,7.40
2018-11-26T15:35:20.564Z,7.40
2018-11-26T15:37:49.186Z,7.40
2018-11-26T15:40:18.852Z,7.40
2018-11-26T15:42:47.396Z,7.40
2018-11-26T15:45:22.208Z,7.40
2018-11-26T15:47:51.748Z,7.40
2018-11-26T15:50:20.855Z,7.40
2018-11-26T15:52:49.106Z,7.50
2018-11-26T15:55:18.877Z,7.60
2018-11-26T15:57:47.653Z,7.60
2018-11-26T16:00:18.275Z,7.60
2018-11-26T16:02:46.906Z,7.50
2018-11-26T16:05:17.919Z,7.50
2018-11-26T16:07:47.087Z,7.60
2018-11-26T16:10:15.827Z,7.50
2018-11-26T16:12:45.583Z,7.50
2018-11-26T16:15:16.574Z,7.50
2018-11-26T16:17:45.160Z,7.50
2018-11-26T16:20:16.170Z,7.50
2018-11-26T16:22:44.808Z,7.50
2018-11-26T16:25:14.792Z,7.50
2018-11-26T16:27:43.339Z,7.50
2018-11-26T16:30:13.197Z,7.40
2018-11-26T16:32:42.753Z,7.40
2018-11-26T16:35:16.799Z,7.40
2018-11-26T16:37:45.471Z,7.40
2018-11-26T16:40:15.307Z,7.30
2018-11-26T16:42:43.854Z,7.40
2018-11-26T16:45:15.512Z,7.40
2018-11-26T16:47:44.796Z,7.20
2018-11-26T16:50:14.447Z,7.30
2018-11-26T16:52:43.000Z,7.30
2018-11-26T16:55:12.796Z,7.30
2018-11-26T16:57:41.614Z,7.30
2018-11-26T17:00:16.481Z,7.30
2018-11-26T17:02:45.545Z,7.20
2018-11-26T17:05:16.609Z,7.30
2018-11-26T17:07:45.148Z,7.20
2018-11-26T17:10:13.709Z,7.30
2018-11-26T17:12:42.252Z,7.20
2018-11-26T17:15:13.892Z,7.20
2018-11-26T17:17:42.892Z,7.20
2018-11-26T17:20:12.636Z,7.20
2018-11-26T17:22:41.475Z,7.20
2018-11-26T17:25:11.251Z,7.20
2018-11-26T17:27:40.523Z,7.10
2018-11-26T17:30:22.426Z,7.10
2018-11-26T17:32:52.412Z,7.10
2018-11-26T17:35:21.197Z,7.10
2018-11-26T17:37:49.741Z,7.00
2018-11-26T17:40:19.695Z,7.00
2018-11-26T17:42:48.244Z,7.00
2018-11-26T17:45:17.411Z,7.00
2018-11-26T17:47:47.424Z,7.00
2018-11-26T17:50:25.202Z,7.00
2018-11-26T17:52:53.785Z,7.00
2018-11-26T17:55:22.356Z,6.90
2018-11-26T17:57:50.971Z,6.90
2018-11-26T18:00:22.266Z,7.00
2018-11-26T18:02:50.820Z,7.00
2018-11-26T18:05:21.639Z,7.00
2018-11-26T18:07:55.117Z,7.00
2018-11-26T18:10:23.725Z,7.00
2018-11-26T18:12:52.271Z,6.90
2018-11-26T18:15:20.856Z,7.00
2018-11-26T18:17:49.399Z,6.90
2018-11-26T18:20:19.408Z,6.90
2018-11-26T18:22:49.398Z,6.90
2018-11-26T18:25:18.574Z,7.00
2018-11-26T18:27:50.781Z,7.00
2018-11-26T18:30:22.087Z,7.00
2018-11-26T18:32:50.766Z,7.00
2018-11-26T18:35:20.026Z,6.90
2018-11-26T18:37:48.715Z,6.80
2018-11-26T18:40:17.805Z,6.80
2018-11-26T18:42:46.407Z,6.80
2018-11-26T18:45:16.308Z,6.80
2018-11-26T18:47:46.212Z,6.70
2018-11-26T18:50:16.160Z,6.60
2018-11-26T18:52:45.461Z,6.70
2018-11-26T18:55:14.083Z,6.60
2018-11-26T18:57:42.927Z,6.60
2018-11-26T19:00:16.368Z,6.60
2018-11-26T19:02:44.927Z,6.50
2018-11-26T19:05:14.729Z,6.50
2018-11-26T19:07:43.301Z,6.40
2018-11-26T19:10:19.928Z,6.40
2018-11-26T19:12:52.142Z,6.40
2018-11-26T19:15:22.764Z,6.40
2018-11-26T19:17:52.540Z,6.30
2018-11-26T19:20:21.248Z,6.20
2018-11-26T19:22:49.899Z,6.30
2018-11-26T19:25:19.026Z,6.30
2018-11-26T19:27:47.750Z,6.30
2018-11-26T19:30:16.415Z,6.30
2018-11-26T19:32:45.904Z,6.20
2018-11-26T19:35:15.676Z,6.20
2018-11-26T19:37:44.571Z,6.20
2018-11-26T19:40:17.145Z,6.20
2018-11-26T19:42:46.828Z,6.20
2018-11-26T19:45:16.726Z,6.30
2018-11-26T19:47:45.663Z,6.20
2018-11-26T19:50:17.395Z,6.10
2018-11-26T19:52:47.554Z,6.10
2018-11-26T19:55:23.376Z,6.10
2018-11-26T19:57:52.464Z,6.20
2018-11-26T20:00:24.139Z,6.10
2018-11-26T20:02:59.683Z,6.20
2018-11-26T20:05:32.619Z,6.20
2018-11-26T20:08:01.627Z,6.30
2018-11-26T20:10:30.317Z,6.30
2018-11-26T20:12:59.016Z,6.20
2018-11-26T20:15:27.794Z,6.20
2018-11-26T20:17:59.109Z,6.20
2018-11-26T20:20:24.981Z,6.30
2018-11-26T20:22:53.828Z,6.20
2018-11-26T20:25:22.184Z,6.20
2018-11-26T20:27:50.751Z,6.10
2018-11-26T20:30:19.292Z,6.10
2018-11-26T20:32:48.252Z,6.10
2018-11-26T20:35:16.871Z,6.00
2018-11-26T20:37:45.450Z,6.10
2018-11-26T20:40:16.398Z,6.20
2018-11-26T20:42:50.961Z,6.10
2018-11-26T20:45:19.517Z,6.10
2018-11-26T20:47:49.245Z,6.10
2018-11-26T20:50:24.156Z,6.20
2018-11-26T20:52:52.720Z,6.20
2018-11-26T20:55:22.536Z,6.20
2018-11-26T20:57:52.180Z,6.20
2018-11-26T21:00:22.011Z,6.20
2018-11-26T21:02:51.988Z,6.10
2018-11-26T21:05:20.592Z,6.10
2018-11-26T21:07:49.152Z,6.00
2018-11-26T21:10:17.976Z,6.00
2018-11-26T21:12:46.529Z,6.00
2018-11-26T21:15:16.483Z,6.00
2018-11-26T21:17:48.332Z,6.00
2018-11-26T21:20:21.581Z,6.00
2018-11-26T21:22:50.161Z,5.90
2018-11-26T21:25:18.916Z,5.80
2018-11-26T21:27:47.463Z,5.90
2018-11-26T21:30:17.421Z,5.90
2018-11-26T21:32:45.965Z,5.90
2018-11-26T21:35:15.842Z,5.90
2018-11-26T21:37:45.697Z,5.80
2018-11-26T21:40:20.354Z,5.80
2018-11-26T21:42:44.156Z,5.80
2018-11-26T21:45:21.215Z,5.70
2018-11-26T21:47:49.763Z,5.70
2018-11-26T21:50:18.335Z,5.70
2018-11-26T21:52:46.859Z,5.70
2018-11-26T21:55:17.655Z,5.70
2018-11-26T21:57:46.190Z,5.80
2018-11-26T22:00:18.296Z,5.80
2018-11-26T22:02:46.896Z,5.70
2018-11-26T22:05:15.474Z,5.70
2018-11-26T22:07:44.059Z,5.70
2018-11-26T22:10:17.634Z,5.70
2018-11-26T22:12:48.504Z,5.70
2018-11-26T22:15:17.312Z,5.70
2018-11-26T22:17:45.848Z,5.60
2018-11-26T22:20:19.816Z,5.70
2018-11-26T22:22:48.447Z,5.70
2018-11-26T22:25:17.028Z,5.70
2018-11-26T22:27:45.568Z,5.60
2018-11-26T22:30:17.544Z,5.50
2018-11-26T22:32:46.088Z,5.50
2018-11-26T22:35:14.683Z,5.60
2018-11-26T22:37:43.308Z,5.60
2018-11-26T22:40:14.051Z,5.50
2018-11-26T22:42:43.250Z,5.60
2018-11-26T22:45:15.924Z,5.50
2018-11-26T22:48:08.660Z,5.50
2018-11-26T22:50:38.495Z,5.50
2018-11-26T22:53:08.267Z,5.40
2018-11-26T22:55:36.838Z,5.30
2018-11-26T22:58:06.855Z,5.30
2018-11-26T23:00:41.372Z,5.30
2018-11-26T23:03:11.096Z,5.30
2018-11-26T23:05:39.657Z,5.30
2018-11-26T23:08:08.191Z,5.30
2018-11-26T23:10:36.753Z,5.30
2018-11-26T23:13:05.544Z,5.30
2018-11-26T23:15:34.108Z,5.30
2018-11-26T23:18:02.644Z,5.30
2018-11-26T23:20:31.203Z,5.30
2018-11-26T23:22:59.768Z,5.30
2018-11-26T23:25:28.314Z,5.30
2018-11-26T23:27:56.855Z,5.40
2018-11-26T23:30:26.785Z,5.50
2018-11-26T23:33:02.531Z,5.50
2018-11-26T23:35:31.092Z,5.50
2018-11-26T23:37:59.639Z,5.60
2018-11-26T23:40:28.208Z,5.60
2018-11-26T23:42:56.735Z,5.70
2018-11-26T23:45:26.292Z,5.70
2018-11-26T23:47:54.847Z,5.60
2018-11-26T23:50:23.409Z,5.60
2018-11-26T23:52:51.936Z,5.60
2018-11-26T23:55:22.052Z,5.60
2018-11-26T23:57:50.621Z,5.60
